CheckWX is a tool to help pilots better visualize weather data.  It is not intended as a substitute for an official pre-flight weather briefing.

15:05:48 UTC

KSMN METAR
Lemhi County Airport
Salmon, Idaho, USA
Current

10 mins ago

KSMN 231456Z AUTO 00000KT 10SM FEW060 OVC095 08/03 A2996 RMK AO2 SLP148 T00830028 58009
Observed
May-23 @ 14:56 UTC
Visibility
10 SM
Flight Rules
VFR
Cloud Levels
  • Few at 6,000' AGL
  • Overcast at 9,500' AGL
Temperature
C / 46°F
Dewpoint
C / 37°F
Humidity
71%
Altimeter
29.96" Hg
Pressure
1014.52 hPa
Previous

1 hour ago

KSMN 231356Z AUTO 00000KT 10SM BKN065 BKN085 OVC100 07/04 A2998 RMK AO2 SLP155 T00670039
Observed
May-23 @ 13:56 UTC
Visibility
10 SM
Flight Rules
VFR
Cloud Levels
  • Broken at 6,500' AGL
  • Broken at 8,500' AGL
  • Overcast at 10,000' AGL
Temperature
C / 45°F
Dewpoint
C / 39°F
Humidity
81%
Altimeter
29.98" Hg
Pressure
1015.22 hPa
Previous

2 hours ago

KSMN 231256Z AUTO 14005KT 10SM OVC060 06/03 A2999 RMK AO2 SLP156 T00610028
Observed
May-23 @ 12:56 UTC
Wind
  • 140° at 5 KTS
Visibility
10 SM
Flight Rules
VFR
Cloud Levels
  • Overcast at 6,000' AGL
Temperature
C / 43°F
Dewpoint
C / 37°F
Humidity
81%
Altimeter
29.99" Hg
Pressure
1015.62 hPa